Time;durP1;ratioP1;P1;durP2;ratioP2;P2;SDS_P1;SDS_P2;PMS_P1;PMS_P2;Temp;Humidity;BMP_temperature;BMP_pressure;BME280_temperature;BME280_humidity;BME280_pressure;Samples;Min_cycle;Max_cycle;Signal;HPM_P1;HPM_P2
2023/07/14 00:01:35;;;;;;;7.27;5.27;;;17.60;68.10;;;;;;5025316;28;20682;-72
2023/07/14 00:04:02;;;;;;;7.85;4.63;;;17.60;68.20;;;;;;5010716;28;20266;-72
2023/07/14 00:06:30;;;;;;;6.65;4.85;;;17.60;68.20;;;;;;5024930;28;20049;-72
2023/07/14 00:08:57;;;;;;;7.28;4.20;;;17.60;68.20;;;;;;5027871;28;20061;-73
2023/07/14 00:11:25;;;;;;;6.78;4.28;;;17.60;68.30;;;;;;5029096;28;20053;-72
2023/07/14 00:13:54;;;;;;;7.23;4.20;;;17.50;68.20;;;;;;5028863;28;20076;-72
2023/07/14 00:16:23;;;;;;;6.22;4.15;;;17.50;68.30;;;;;;5028744;28;20336;-73
2023/07/14 00:18:52;;;;;;;6.93;4.10;;;17.50;68.40;;;;;;5028500;28;20436;-72
2023/07/14 00:21:21;;;;;;;9.25;4.65;;;17.50;68.40;;;;;;5028577;28;20046;-72
2023/07/14 00:23:48;;;;;;;6.70;4.20;;;17.50;68.40;;;;;;5029004;28;20058;-72
2023/07/14 00:26:17;;;;;;;7.20;4.67;;;17.50;68.30;;;;;;5015842;28;20133;-72
2023/07/14 00:28:44;;;;;;;9.15;4.38;;;17.40;68.40;;;;;;5010324;28;20258;-73
2023/07/14 00:31:14;;;;;;;7.50;4.65;;;17.40;68.40;;;;;;5021212;28;20054;-72
2023/07/14 00:33:42;;;;;;;8.80;5.60;;;17.40;68.50;;;;;;5011738;28;20563;-72
2023/07/14 00:36:11;;;;;;;10.65;6.47;;;17.40;68.40;;;;;;5009252;28;20837;-73
2023/07/14 00:38:38;;;;;;;10.70;6.30;;;17.30;68.60;;;;;;4992318;28;20144;-72
2023/07/14 00:41:08;;;;;;;11.40;6.97;;;17.30;68.70;;;;;;5002048;28;20372;-72
2023/07/14 00:43:35;;;;;;;10.40;6.53;;;17.20;68.90;;;;;;5026825;28;20104;-72
2023/07/14 00:46:04;;;;;;;10.85;6.30;;;17.20;68.80;;;;;;5008728;28;20642;-72
2023/07/14 00:48:32;;;;;;;11.88;7.38;;;17.20;68.90;;;;;;5013599;28;20058;-72
2023/07/14 00:51:04;;;;;;;12.10;7.00;;;17.20;68.90;;;;;;5028387;28;20453;-73
2023/07/14 00:53:34;;;;;;;11.23;6.78;;;17.20;69.20;;;;;;5010553;28;20261;-72
2023/07/14 00:56:24;;;;;;;11.55;7.05;;;17.20;69.60;;;;;;5011737;28;20457;-73
2023/07/14 00:58:53;;;;;;;10.77;6.30;;;17.10;69.60;;;;;;5010490;28;20052;-72
2023/07/14 01:01:22;;;;;;;9.88;6.60;;;17.00;69.50;;;;;;5025262;28;20534;-73
2023/07/14 01:03:51;;;;;;;11.20;7.00;;;17.00;69.40;;;;;;5018000;28;20050;-72
2023/07/14 01:06:21;;;;;;;11.65;6.25;;;17.00;69.30;;;;;;5009584;28;20333;-72
2023/07/14 01:08:53;;;;;;;8.00;5.47;;;17.00;69.40;;;;;;5010134;28;20042;-72
2023/07/14 01:11:27;;;;;;;11.73;6.57;;;17.00;69.30;;;;;;5018418;28;20049;-72
2023/07/14 01:13:55;;;;;;;10.65;6.97;;;17.00;69.40;;;;;;5028547;28;20082;-73
2023/07/14 01:16:22;;;;;;;12.10;6.77;;;17.00;69.40;;;;;;5008095;28;20516;-72
2023/07/14 01:18:50;;;;;;;12.15;6.43;;;17.00;69.40;;;;;;5009949;28;20274;-73
2023/07/14 01:21:21;;;;;;;11.13;6.38;;;17.00;69.40;;;;;;5007966;28;20065;-72
2023/07/14 01:24:03;;;;;;;9.23;6.45;;;17.00;69.60;;;;;;5018131;28;20114;-72
2023/07/14 01:26:57;;;;;;;10.90;6.72;;;16.90;69.50;;;;;;5010955;28;20046;-72
2023/07/14 01:29:25;;;;;;;10.27;6.17;;;16.90;69.60;;;;;;5010558;28;20050;-72
2023/07/14 01:31:53;;;;;;;10.13;6.13;;;16.90;69.40;;;;;;5006929;28;20278;-73
2023/07/14 01:34:20;;;;;;;9.43;6.38;;;16.90;69.40;;;;;;5007589;28;20046;-72
2023/07/14 01:36:48;;;;;;;10.38;6.40;;;16.90;69.60;;;;;;5010436;28;20496;-72
2023/07/14 01:39:15;;;;;;;9.88;6.43;;;16.90;69.60;;;;;;5010471;28;20520;-72
2023/07/14 01:41:42;;;;;;;10.40;6.33;;;16.80;69.80;;;;;;5028736;28;20050;-73
2023/07/14 01:44:20;;;;;;;11.38;6.47;;;16.80;69.80;;;;;;5023906;28;20258;-72
2023/07/14 01:46:49;;;;;;;10.65;6.68;;;16.80;69.80;;;;;;5003435;28;20045;-72
2023/07/14 01:49:30;;;;;;;11.02;6.40;;;16.80;69.80;;;;;;5010531;28;20599;-72
2023/07/14 01:52:01;;;;;;;10.60;6.32;;;16.80;69.70;;;;;;5026670;28;20046;-73
2023/07/14 01:54:33;;;;;;;10.07;6.37;;;16.80;69.80;;;;;;5025377;28;20125;-72
2023/07/14 01:57:04;;;;;;;8.63;5.80;;;16.70;69.80;;;;;;5027549;28;20672;-72
2023/07/14 01:59:36;;;;;;;10.05;6.10;;;16.70;69.80;;;;;;5010475;28;20061;-72
2023/07/14 02:02:07;;;;;;;10.32;5.97;;;16.70;69.80;;;;;;5023043;28;20078;-72
2023/07/14 02:04:39;;;;;;;10.10;5.75;;;16.70;69.90;;;;;;4993703;28;20046;-73
2023/07/14 02:07:09;;;;;;;11.03;6.43;;;16.70;69.90;;;;;;5010104;28;20147;-72
2023/07/14 02:09:36;;;;;;;10.07;6.25;;;16.60;69.80;;;;;;5043199;28;20353;-72
2023/07/14 02:12:06;;;;;;;9.23;5.70;;;16.60;70.10;;;;;;5024075;28;20464;-72
2023/07/14 02:14:41;;;;;;;8.88;5.38;;;16.60;70.50;;;;;;5002235;28;20128;-72
2023/07/14 02:17:25;;;;;;;10.50;6.10;;;16.50;70.70;;;;;;5027136;28;20560;-72
2023/07/14 02:19:54;;;;;;;12.63;6.60;;;16.50;70.80;;;;;;5010473;28;20058;-72
2023/07/14 02:22:22;;;;;;;10.88;6.57;;;16.40;71.20;;;;;;5026592;28;20629;-72
2023/07/14 02:24:50;;;;;;;9.80;6.32;;;16.40;71.20;;;;;;5028342;28;20508;-72
2023/07/14 02:27:17;;;;;;;10.52;6.20;;;16.40;71.50;;;;;;5010372;28;20050;-72
2023/07/14 02:29:45;;;;;;;9.80;6.00;;;16.30;71.70;;;;;;5010715;28;20054;-73
2023/07/14 02:32:19;;;;;;;10.40;5.80;;;16.20;71.90;;;;;;5023104;28;20535;-72
2023/07/14 02:34:52;;;;;;;10.02;6.38;;;16.10;72.20;;;;;;5026914;28;20320;-72
2023/07/14 02:37:42;;;;;;;10.80;5.88;;;16.10;72.30;;;;;;5026873;28;20136;-72
2023/07/14 02:40:10;;;;;;;12.43;6.28;;;16.00;72.40;;;;;;5019841;28;20652;-72
2023/07/14 02:42:38;;;;;;;10.30;5.75;;;16.00;72.60;;;;;;5010330;28;20050;-72
2023/07/14 02:45:08;;;;;;;9.43;5.90;;;16.00;72.80;;;;;;5026483;28;20054;-72
2023/07/14 02:47:39;;;;;;;11.60;6.05;;;16.00;73.00;;;;;;5025782;28;20810;-72
2023/07/14 02:50:07;;;;;;;10.95;6.35;;;15.90;73.00;;;;;;5027821;28;20057;-73
2023/07/14 02:52:35;;;;;;;9.35;5.90;;;15.90;73.00;;;;;;5026481;28;20061;-72
2023/07/14 02:55:03;;;;;;;12.05;5.75;;;15.80;73.00;;;;;;5026163;28;20142;-71
2023/07/14 02:57:30;;;;;;;10.83;5.80;;;15.80;73.10;;;;;;5025928;28;20061;-72
2023/07/14 02:59:57;;;;;;;11.55;5.90;;;15.80;73.10;;;;;;5009848;28;20262;-72
2023/07/14 03:02:26;;;;;;;8.90;5.22;;;15.80;73.20;;;;;;5009777;28;20547;-72
2023/07/14 03:04:53;;;;;;;9.63;5.53;;;15.80;73.20;;;;;;5005288;28;20425;-72
2023/07/14 03:07:20;;;;;;;10.75;5.22;;;15.80;73.30;;;;;;5005398;28;20046;-72
2023/07/14 03:09:48;;;;;;;13.57;6.10;;;15.80;73.30;;;;;;5009753;28;20502;-73
2023/07/14 03:12:15;;;;;;;7.95;4.93;;;15.80;73.40;;;;;;5009555;28;20285;-72
2023/07/14 03:14:41;;;;;;;10.35;5.63;;;15.70;73.50;;;;;;5026303;28;20550;-72
2023/07/14 03:17:09;;;;;;;9.45;5.25;;;15.70;73.60;;;;;;5012036;28;20523;-72
2023/07/14 03:19:37;;;;;;;9.65;5.45;;;15.60;73.70;;;;;;5029280;28;20490;-72
2023/07/14 03:22:05;;;;;;;10.90;5.37;;;15.60;73.80;;;;;;5005142;28;20046;-73
2023/07/14 03:24:32;;;;;;;10.30;4.97;;;15.60;73.90;;;;;;5013027;28;20624;-72
2023/07/14 03:26:59;;;;;;;11.60;5.40;;;15.60;73.90;;;;;;5012443;28;20632;-72
2023/07/14 03:29:25;;;;;;;9.52;4.53;;;15.60;73.90;;;;;;5028998;28;20774;-73
2023/07/14 03:31:52;;;;;;;11.80;5.30;;;15.60;73.70;;;;;;5027970;28;20116;-72
2023/07/14 03:34:19;;;;;;;8.57;4.87;;;15.60;73.70;;;;;;5045633;28;20612;-72
2023/07/14 03:36:47;;;;;;;8.23;4.55;;;15.60;73.80;;;;;;5012482;28;20289;-72
2023/07/14 03:39:24;;;;;;;7.57;4.50;;;15.60;73.70;;;;;;4997613;28;20050;-72
2023/07/14 03:41:53;;;;;;;8.48;4.80;;;15.60;73.50;;;;;;5008983;28;20082;-72
2023/07/14 03:44:20;;;;;;;8.18;4.25;;;15.60;73.20;;;;;;5024294;28;20132;-72
2023/07/14 03:46:47;;;;;;;8.57;4.77;;;15.60;73.30;;;;;;5028844;28;20053;-72
2023/07/14 03:49:15;;;;;;;9.40;4.35;;;15.60;73.20;;;;;;5030292;28;20668;-72
2023/07/14 03:51:42;;;;;;;8.23;4.32;;;15.60;73.20;;;;;;5029987;28;20060;-72
2023/07/14 03:54:11;;;;;;;8.15;4.70;;;15.60;72.90;;;;;;5012637;28;20046;-72
2023/07/14 03:56:39;;;;;;;7.57;4.60;;;15.60;72.90;;;;;;5008245;28;20046;-72
2023/07/14 03:59:07;;;;;;;9.07;4.80;;;15.60;72.90;;;;;;5005145;28;20077;-72
2023/07/14 04:01:34;;;;;;;8.43;4.43;;;15.60;72.90;;;;;;5012246;28;20279;-72
2023/07/14 04:04:01;;;;;;;7.70;4.13;;;15.60;72.90;;;;;;5012614;28;20046;-72
2023/07/14 04:06:28;;;;;;;9.07;4.38;;;15.60;72.70;;;;;;5008932;28;20138;-72
2023/07/14 04:08:59;;;;;;;10.23;4.65;;;15.60;72.90;;;;;;5019007;28;20113;-72
2023/07/14 04:11:33;;;;;;;8.63;4.53;;;15.60;72.80;;;;;;5012274;28;20054;-72
2023/07/14 04:14:00;;;;;;;9.75;4.75;;;15.60;72.80;;;;;;5028304;28;20270;-72
2023/07/14 04:16:27;;;;;;;8.55;4.75;;;15.60;72.80;;;;;;5030788;28;20165;-72
2023/07/14 04:18:54;;;;;;;9.93;4.65;;;15.60;72.70;;;;;;5028614;28;20678;-72
2023/07/14 04:21:24;;;;;;;8.10;4.80;;;15.60;72.70;;;;;;5030030;28;20136;-72
2023/07/14 04:23:51;;;;;;;7.97;4.83;;;15.60;72.70;;;;;;5028557;28;20046;-72
2023/07/14 04:26:19;;;;;;;9.50;5.07;;;15.60;72.70;;;;;;5028802;28;20672;-72
2023/07/14 04:28:47;;;;;;;9.05;4.85;;;15.60;72.70;;;;;;5028920;28;20518;-72
2023/07/14 04:31:14;;;;;;;8.30;4.43;;;15.60;72.90;;;;;;5020269;28;20065;-72
2023/07/14 04:33:43;;;;;;;8.75;4.68;;;15.60;72.80;;;;;;5017013;28;20082;-72
2023/07/14 04:36:10;;;;;;;8.50;4.47;;;15.60;72.90;;;;;;5028334;28;20062;-72
2023/07/14 04:38:37;;;;;;;8.73;4.80;;;15.60;73.20;;;;;;5029873;28;20344;-72
2023/07/14 04:41:04;;;;;;;7.60;4.50;;;15.60;73.40;;;;;;5027948;28;20057;-72
2023/07/14 04:43:33;;;;;;;9.20;5.05;;;15.60;73.40;;;;;;5026731;28;20050;-72
2023/07/14 04:46:02;;;;;;;9.27;5.10;;;15.60;73.40;;;;;;5020693;28;20064;-72
2023/07/14 04:48:29;;;;;;;9.70;5.03;;;15.60;73.40;;;;;;5028754;28;20161;-72
2023/07/14 04:50:56;;;;;;;9.43;5.15;;;15.60;73.70;;;;;;5029241;28;21408;-72
2023/07/14 04:53:23;;;;;;;9.18;5.18;;;15.60;73.70;;;;;;5012077;28;20166;-72
2023/07/14 04:55:51;;;;;;;9.23;5.00;;;15.60;73.90;;;;;;5027421;28;20073;-72
2023/07/14 04:58:18;;;;;;;9.30;5.65;;;15.60;74.30;;;;;;5016756;28;20061;-72
2023/07/14 05:00:47;;;;;;;10.23;5.37;;;15.60;74.50;;;;;;5029292;28;20084;-72
2023/07/14 05:03:16;;;;;;;11.77;5.60;;;15.60;74.60;;;;;;5028062;28;20269;-71
2023/07/14 05:05:43;;;;;;;10.07;5.30;;;15.60;74.90;;;;;;5028359;28;20053;-72
2023/07/14 05:08:09;;;;;;;10.57;5.75;;;15.60;75.20;;;;;;5027812;28;20057;-73
2023/07/14 05:10:38;;;;;;;11.90;5.60;;;15.60;75.30;;;;;;5028955;28;20053;-73
2023/07/14 05:13:06;;;;;;;12.43;5.57;;;15.60;75.50;;;;;;5029095;28;20053;-72
2023/07/14 05:15:33;;;;;;;10.10;5.97;;;15.60;75.70;;;;;;5024607;28;20249;-72
2023/07/14 05:18:00;;;;;;;11.40;6.18;;;15.60;75.80;;;;;;5027685;28;20550;-72
2023/07/14 05:20:29;;;;;;;10.50;5.78;;;15.60;76.00;;;;;;5027330;28;20054;-72
2023/07/14 05:22:56;;;;;;;10.77;6.78;;;15.60;76.20;;;;;;5027414;28;20050;-72
2023/07/14 05:25:23;;;;;;;10.97;6.30;;;15.60;76.40;;;;;;5026662;28;20052;-72
2023/07/14 05:27:50;;;;;;;10.93;6.30;;;15.60;76.50;;;;;;5027552;28;20256;-72
2023/07/14 05:30:20;;;;;;;10.98;6.15;;;15.60;76.80;;;;;;5028759;28;20512;-72
2023/07/14 05:32:48;;;;;;;11.15;6.75;;;15.60;77.00;;;;;;5028361;28;20057;-72
2023/07/14 05:35:15;;;;;;;11.50;6.78;;;15.60;77.10;;;;;;5026825;28;20566;-72
2023/07/14 05:37:46;;;;;;;12.37;7.17;;;15.60;77.20;;;;;;5027717;28;20042;-72
2023/07/14 05:40:14;;;;;;;15.02;7.30;;;15.60;77.50;;;;;;5027333;28;20274;-72
2023/07/14 05:42:41;;;;;;;15.15;7.18;;;15.60;77.60;;;;;;5026051;28;20052;-72
2023/07/14 05:45:10;;;;;;;11.93;6.78;;;15.60;77.70;;;;;;5027509;28;20214;-72
2023/07/14 05:47:38;;;;;;;12.02;7.00;;;15.60;77.90;;;;;;5027467;28;20495;-72
2023/07/14 05:50:06;;;;;;;15.17;7.00;;;15.60;77.80;;;;;;5027234;28;20526;-72
2023/07/14 05:52:34;;;;;;;13.55;7.30;;;15.70;77.90;;;;;;5026977;28;20336;-72
2023/07/14 05:55:03;;;;;;;10.85;6.45;;;15.70;78.00;;;;;;5027340;28;20073;-72
2023/07/14 05:57:30;;;;;;;13.32;7.35;;;15.80;78.20;;;;;;5027122;28;20137;-72
2023/07/14 05:59:57;;;;;;;12.77;7.28;;;15.80;78.40;;;;;;5027502;28;20153;-72
2023/07/14 06:02:25;;;;;;;13.10;7.50;;;15.80;78.40;;;;;;5026481;28;20128;-72
2023/07/14 06:04:53;;;;;;;14.45;7.10;;;15.80;78.60;;;;;;5028582;28;20308;-72
2023/07/14 06:07:20;;;;;;;11.15;7.13;;;15.80;78.50;;;;;;5026928;28;20074;-72
2023/07/14 06:09:47;;;;;;;13.32;7.70;;;15.80;78.70;;;;;;5026929;28;20081;-72
2023/07/14 06:12:15;;;;;;;13.95;7.60;;;15.90;78.70;;;;;;5026572;28;20054;-72
2023/07/14 06:14:42;;;;;;;12.90;7.03;;;16.00;79.00;;;;;;5027139;28;20054;-72
2023/07/14 06:17:13;;;;;;;11.60;6.78;;;16.00;79.30;;;;;;5023604;28;20265;-72
2023/07/14 06:19:39;;;;;;;13.00;7.10;;;16.00;79.20;;;;;;5022298;28;20058;-73
2023/07/14 06:22:07;;;;;;;13.15;7.00;;;16.10;79.20;;;;;;5032422;28;20062;-72
2023/07/14 06:24:35;;;;;;;12.85;7.40;;;16.10;79.30;;;;;;5017464;28;20038;-72
2023/07/14 06:27:03;;;;;;;13.53;7.30;;;16.20;79.40;;;;;;5037244;28;20049;-72
2023/07/14 06:29:32;;;;;;;12.05;7.65;;;16.20;79.40;;;;;;5034830;28;20286;-73
2023/07/14 06:31:59;;;;;;;13.35;7.53;;;16.30;79.40;;;;;;5030463;28;20058;-72
2023/07/14 06:34:27;;;;;;;12.63;7.85;;;16.40;79.40;;;;;;5030595;28;20140;-72
2023/07/14 06:36:54;;;;;;;11.48;7.35;;;16.40;79.30;;;;;;5038605;28;20214;-73
2023/07/14 06:39:21;;;;;;;11.77;7.53;;;16.40;79.40;;;;;;5034274;28;20145;-73
2023/07/14 06:41:49;;;;;;;11.25;6.95;;;16.50;79.50;;;;;;5012542;28;20785;-72
2023/07/14 06:44:16;;;;;;;13.48;7.38;;;16.60;79.40;;;;;;5032622;28;20523;-72
2023/07/14 06:46:44;;;;;;;12.75;6.60;;;16.60;79.40;;;;;;5027943;28;20460;-72
2023/07/14 06:49:12;;;;;;;12.07;6.90;;;16.70;79.40;;;;;;5027802;28;20046;-72
2023/07/14 06:51:39;;;;;;;11.33;6.87;;;16.70;79.70;;;;;;5028744;28;20073;-72
2023/07/14 06:54:06;;;;;;;12.30;7.43;;;16.80;79.40;;;;;;5035662;28;21026;-71
2023/07/14 06:56:32;;;;;;;13.57;7.40;;;16.90;79.20;;;;;;5033155;28;20571;-72
2023/07/14 06:59:02;;;;;;;11.82;7.07;;;16.90;79.00;;;;;;5033301;28;20168;-72
2023/07/14 07:01:29;;;;;;;10.98;7.10;;;17.00;78.90;;;;;;5018912;28;20523;-72
2023/07/14 07:03:58;;;;;;;13.87;7.93;;;17.00;78.90;;;;;;5019505;28;20054;-72
2023/07/14 07:06:25;;;;;;;13.13;7.10;;;17.00;79.00;;;;;;5023490;28;20245;-71
2023/07/14 07:08:52;;;;;;;13.80;7.55;;;17.10;78.90;;;;;;5043523;28;20508;-71
2023/07/14 07:11:19;;;;;;;13.18;6.90;;;17.20;78.90;;;;;;5035881;28;20588;-72
2023/07/14 07:13:46;;;;;;;12.60;7.10;;;17.20;78.90;;;;;;5045514;28;20060;-72
2023/07/14 07:16:13;;;;;;;12.27;6.10;;;17.30;78.80;;;;;;5037179;28;20057;-71
2023/07/14 07:18:40;;;;;;;12.48;6.75;;;17.40;78.40;;;;;;5018432;28;20854;-71
2023/07/14 07:21:12;;;;;;;10.65;6.57;;;17.50;78.00;;;;;;5013151;28;20061;-72
2023/07/14 07:23:39;;;;;;;10.20;5.72;;;17.50;77.10;;;;;;5015536;28;20058;-72
2023/07/14 07:26:06;;;;;;;9.57;5.45;;;17.60;76.30;;;;;;5013723;28;20046;-72
2023/07/14 07:28:33;;;;;;;8.67;4.63;;;17.60;75.80;;;;;;5011398;28;20057;-72
2023/07/14 07:31:11;;;;;;;10.05;5.25;;;17.70;75.50;;;;;;5015283;28;20258;-72
2023/07/14 07:33:38;;;;;;;8.90;5.90;;;17.80;75.30;;;;;;5026713;28;20160;-72
2023/07/14 07:36:14;;;;;;;8.55;4.40;;;17.80;74.80;;;;;;5021079;28;20149;-72
2023/07/14 07:38:45;;;;;;;9.52;4.95;;;17.80;74.40;;;;;;5022169;28;20048;-72
2023/07/14 07:41:13;;;;;;;10.37;5.50;;;17.90;74.70;;;;;;5013853;28;20307;-72
2023/07/14 07:43:40;;;;;;;11.02;5.38;;;18.00;74.50;;;;;;5011302;28;20281;-72
2023/07/14 07:46:07;;;;;;;10.13;5.43;;;18.00;74.10;;;;;;4992828;28;20492;-71
2023/07/14 07:48:36;;;;;;;10.38;4.95;;;18.00;74.00;;;;;;5021439;28;20133;-71
2023/07/14 07:51:04;;;;;;;10.15;5.00;;;18.10;73.90;;;;;;5023421;28;20053;-71
2023/07/14 07:53:31;;;;;;;11.73;5.07;;;18.10;74.00;;;;;;5048112;28;20084;-72
2023/07/14 07:56:00;;;;;;;10.35;4.72;;;18.20;73.60;;;;;;5038291;28;20261;-72
2023/07/14 07:58:27;;;;;;;9.38;4.40;;;18.20;72.20;;;;;;5027497;28;20072;-72
2023/07/14 08:00:55;;;;;;;7.85;3.53;;;18.30;71.70;;;;;;5026728;28;20443;-71
2023/07/14 08:03:22;;;;;;;7.18;3.45;;;18.30;70.90;;;;;;5026626;28;20664;-72
2023/07/14 08:05:49;;;;;;;10.50;4.27;;;18.40;70.30;;;;;;5025932;28;20108;-74
2023/07/14 08:08:16;;;;;;;8.32;3.50;;;18.40;70.10;;;;;;5025811;28;20269;-73
2023/07/14 08:10:46;;;;;;;7.63;3.22;;;18.40;70.10;;;;;;5005681;28;20125;-74
2023/07/14 08:13:16;;;;;;;8.65;3.70;;;18.50;70.10;;;;;;5019227;28;20563;-74
2023/07/14 08:15:43;;;;;;;8.07;3.70;;;18.50;70.50;;;;;;5025166;28;20050;-75
2023/07/14 08:18:10;;;;;;;8.17;3.77;;;18.50;70.10;;;;;;5022215;28;20168;-74
2023/07/14 08:20:38;;;;;;;8.32;3.67;;;18.60;70.00;;;;;;5008345;28;20257;-72
2023/07/14 08:23:05;;;;;;;8.80;2.95;;;18.60;69.40;;;;;;5025786;28;20053;-73
2023/07/14 08:25:32;;;;;;;6.03;2.40;;;18.60;69.30;;;;;;5016269;28;20046;-73
2023/07/14 08:27:59;;;;;;;6.63;2.15;;;18.70;68.70;;;;;;5020635;28;20061;-74
2023/07/14 08:30:30;;;;;;;5.90;2.57;;;18.70;67.90;;;;;;5032612;28;20521;-74
2023/07/14 08:32:57;;;;;;;6.45;2.15;;;18.70;67.30;;;;;;5033944;28;20835;-74
2023/07/14 08:35:25;;;;;;;5.93;2.38;;;18.80;67.20;;;;;;5038350;28;20049;-74
2023/07/14 08:37:52;;;;;;;6.50;2.17;;;18.80;67.30;;;;;;5034584;28;20129;-74
2023/07/14 08:40:22;;;;;;;9.25;2.22;;;18.80;66.50;;;;;;5026358;28;20149;-71
2023/07/14 08:43:04;;;;;;;5.17;2.20;;;18.80;66.10;;;;;;5025375;28;20100;-74
2023/07/14 08:45:38;;;;;;;7.18;2.45;;;18.90;65.80;;;;;;5017622;28;20344;-74
2023/07/14 08:48:25;;;;;;;7.68;2.58;;;18.90;66.50;;;;;;5020603;28;20058;-74
2023/07/14 08:50:56;;;;;;;5.60;1.80;;;18.90;66.50;;;;;;5023775;28;20050;-73
2023/07/14 08:53:27;;;;;;;4.97;1.85;;;18.90;65.80;;;;;;5028239;28;20053;-72
2023/07/14 08:56:01;;;;;;;6.07;1.97;;;19.00;63.90;;;;;;5011394;28;20380;-72
2023/07/14 08:58:30;;;;;;;5.32;1.90;;;19.00;63.90;;;;;;5028971;28;20369;-73
2023/07/14 09:01:15;;;;;;;6.80;1.90;;;19.00;64.00;;;;;;5023194;28;20052;-72
2023/07/14 09:03:44;;;;;;;4.78;2.08;;;19.10;63.90;;;;;;5027149;28;20057;-73
2023/07/14 09:06:21;;;;;;;6.05;2.30;;;19.10;63.30;;;;;;5027434;28;20061;-72
2023/07/14 09:08:49;;;;;;;5.43;2.20;;;19.10;62.80;;;;;;5022314;28;20057;-73
2023/07/14 09:11:45;;;;;;;5.07;2.15;;;19.20;62.80;;;;;;5026844;28;20520;-73
2023/07/14 09:14:27;;;;;;;7.38;2.50;;;19.30;63.40;;;;;;5028572;28;20053;-74
2023/07/14 09:17:02;;;;;;;6.68;2.60;;;19.30;62.80;;;;;;5027532;28;20050;-75
2023/07/14 09:19:43;;;;;;;6.32;2.65;;;19.40;63.30;;;;;;5023940;28;20050;-74
2023/07/14 09:22:19;;;;;;;6.17;2.60;;;19.40;62.90;;;;;;5019246;28;20435;-75
2023/07/14 09:24:55;;;;;;;7.65;3.00;;;19.50;63.20;;;;;;5009790;28;20737;-74
2023/07/14 09:27:27;;;;;;;6.85;2.83;;;19.50;63.30;;;;;;5021590;28;20050;-74
2023/07/14 09:29:55;;;;;;;7.00;3.10;;;19.50;63.40;;;;;;5018984;28;20046;-73
2023/07/14 09:32:32;;;;;;;8.18;3.40;;;19.60;62.90;;;;;;5018560;28;20133;-75
2023/07/14 09:35:09;;;;;;;7.20;2.97;;;19.70;62.50;;;;;;5022638;28;20042;-73
2023/07/14 09:37:43;;;;;;;6.53;3.05;;;19.70;63.00;;;;;;5025626;28;20347;-73
2023/07/14 09:40:18;;;;;;;6.47;3.00;;;19.70;63.40;;;;;;5023446;28;20046;-74
2023/07/14 09:42:50;;;;;;;6.22;3.08;;;19.80;62.90;;;;;;5014541;28;20104;-72
2023/07/14 09:45:20;;;;;;;7.53;3.15;;;19.90;63.00;;;;;;5018390;28;20054;-74
2023/07/14 09:47:53;;;;;;;6.33;3.10;;;19.90;62.90;;;;;;5027337;28;20147;-76
2023/07/14 09:50:21;;;;;;;7.22;3.10;;;20.00;62.60;;;;;;5028614;28;20731;-78
2023/07/14 09:52:55;;;;;;;6.50;3.08;;;20.00;61.80;;;;;;5028721;28;20060;-78
2023/07/14 09:55:23;;;;;;;7.68;3.15;;;20.10;62.50;;;;;;5025494;28;20057;-78
2023/07/14 09:57:55;;;;;;;8.25;3.00;;;20.10;62.70;;;;;;5027115;28;20055;-73
2023/07/14 10:00:25;;;;;;;6.57;3.37;;;20.20;62.40;;;;;;5025936;28;20061;-74
2023/07/14 10:03:07;;;;;;;7.10;3.85;;;20.30;62.70;;;;;;5018525;28;20270;-74
2023/07/14 10:05:45;;;;;;;7.20;3.95;;;20.30;62.00;;;;;;5023403;28;20492;-73
2023/07/14 10:08:33;;;;;;;7.97;3.17;;;20.40;61.90;;;;;;5025217;28;20046;-73
2023/07/14 10:11:10;;;;;;;8.18;3.30;;;20.50;61.00;;;;;;5025818;28;20144;-74
2023/07/14 10:13:37;;;;;;;7.90;3.13;;;20.50;61.30;;;;;;5025437;28;20053;-73
2023/07/14 10:16:14;;;;;;;7.13;2.90;;;20.50;61.20;;;;;;5025216;28;20845;-74
2023/07/14 10:18:51;;;;;;;6.95;3.22;;;20.50;61.60;;;;;;5026340;28;20046;-73
2023/07/14 10:21:24;;;;;;;8.23;3.35;;;20.50;61.70;;;;;;5030972;28;20060;-75
2023/07/14 10:24:04;;;;;;;6.70;3.28;;;20.50;61.80;;;;;;5026435;28;20247;-79
2023/07/14 10:26:34;;;;;;;7.17;3.17;;;20.50;62.10;;;;;;5026134;28;20049;-79
2023/07/14 10:29:04;;;;;;;9.23;3.53;;;20.50;62.70;;;;;;5023317;28;20403;-78
2023/07/14 10:31:38;;;;;;;6.75;3.47;;;20.50;62.70;;;;;;5018175;28;20061;-78
2023/07/14 10:34:24;;;;;;;8.00;3.17;;;20.50;62.00;;;;;;5017362;28;20053;-78
2023/07/14 10:36:57;;;;;;;7.05;3.15;;;20.60;60.70;;;;;;5020717;28;20046;-78
2023/07/14 10:39:36;;;;;;;7.53;2.73;;;20.60;60.30;;;;;;5027462;28;20496;-76
2023/07/14 10:42:04;;;;;;;5.22;2.60;;;20.60;60.70;;;;;;5023478;28;20293;-77
2023/07/14 10:44:35;;;;;;;5.22;2.25;;;20.70;59.70;;;;;;5036452;28;20104;-78
2023/07/14 10:47:11;;;;;;;5.55;2.72;;;20.70;59.20;;;;;;5033405;28;20254;-78
2023/07/14 10:49:43;;;;;;;5.93;2.20;;;20.70;58.90;;;;;;5022390;28;20041;-78
2023/07/14 10:52:15;;;;;;;5.97;2.40;;;20.80;58.50;;;;;;5012356;28;20412;-79
2023/07/14 10:54:50;;;;;;;5.53;2.33;;;20.80;58.20;;;;;;5043629;28;20301;-77
2023/07/14 10:57:34;;;;;;;6.70;2.65;;;20.90;58.50;;;;;;5033003;28;20060;-77
2023/07/14 11:00:15;;;;;;;7.45;2.33;;;21.00;58.10;;;;;;5029045;28;20073;-77
2023/07/14 11:02:46;;;;;;;6.07;2.70;;;21.10;58.40;;;;;;5024456;28;20061;-77
2023/07/14 11:05:19;;;;;;;6.07;2.70;;;21.10;57.40;;;;;;5024992;28;20058;-79
2023/07/14 11:07:46;;;;;;;7.13;2.60;;;21.10;57.40;;;;;;5011936;28;20266;-77
2023/07/14 11:10:20;;;;;;;6.05;2.20;;;21.10;58.00;;;;;;5005822;28;20084;-77
2023/07/14 11:12:54;;;;;;;4.82;2.10;;;21.20;57.90;;;;;;5021682;28;20046;-77
2023/07/14 11:15:25;;;;;;;5.53;2.00;;;21.30;57.40;;;;;;5032002;28;20143;-77
2023/07/14 11:18:00;;;;;;;7.13;2.53;;;21.30;55.60;;;;;;5027852;28;20054;-77
2023/07/14 11:20:33;;;;;;;4.88;1.88;;;21.30;55.80;;;;;;5024949;28;20260;-77
2023/07/14 11:23:10;;;;;;;5.07;2.10;;;21.30;56.30;;;;;;5022966;28;20551;-77
2023/07/14 11:25:46;;;;;;;5.90;2.40;;;21.30;55.70;;;;;;5018832;28;20050;-77
2023/07/14 11:28:29;;;;;;;5.53;2.28;;;21.30;56.20;;;;;;5009294;28;20519;-77
2023/07/14 11:31:01;;;;;;;4.60;2.50;;;21.30;57.10;;;;;;5025109;28;20077;-80
2023/07/14 11:33:45;;;;;;;6.28;2.30;;;21.30;57.90;;;;;;5025151;28;20271;-79
2023/07/14 11:36:18;;;;;;;6.47;2.35;;;21.30;57.30;;;;;;5025817;28;20132;-80
2023/07/14 11:38:52;;;;;;;6.32;2.10;;;21.30;57.90;;;;;;5028454;28;20543;-80
2023/07/14 11:41:20;;;;;;;6.00;2.40;;;21.30;58.20;;;;;;5011815;28;20521;-80
2023/07/14 11:43:49;;;;;;;5.43;2.47;;;21.40;57.70;;;;;;5027589;28;20054;-79
2023/07/14 11:46:18;;;;;;;5.25;2.47;;;21.40;57.70;;;;;;5029028;28;20256;-79
2023/07/14 11:49:03;;;;;;;5.30;2.40;;;21.50;58.00;;;;;;5031073;28;20065;-79
2023/07/14 11:51:50;;;;;;;6.57;2.50;;;21.50;58.20;;;;;;5023028;28;20057;-78
2023/07/14 11:54:18;;;;;;;6.97;2.17;;;21.50;57.80;;;;;;5019332;28;20057;-78
2023/07/14 11:57:00;;;;;;;5.70;2.73;;;21.50;57.90;;;;;;5016850;28;20097;-80
2023/07/14 11:59:29;;;;;;;5.72;2.70;;;21.50;57.40;;;;;;5021372;28;20272;-80
2023/07/14 12:01:57;;;;;;;5.45;2.20;;;21.50;57.30;;;;;;5020505;28;20548;-80
2023/07/14 12:04:31;;;;;;;5.72;2.33;;;21.50;58.00;;;;;;5023460;28;20121;-80
2023/07/14 12:07:13;;;;;;;7.47;2.88;;;21.40;58.20;;;;;;5030568;28;20056;-79
2023/07/14 12:09:58;;;;;;;6.63;2.40;;;21.40;58.20;;;;;;5019154;28;20610;-81
2023/07/14 12:12:26;;;;;;;6.72;2.75;;;21.40;58.40;;;;;;5031233;28;20277;-78
2023/07/14 12:14:53;;;;;;;5.32;2.80;;;21.30;58.70;;;;;;5033222;28;20488;-79
2023/07/14 12:17:48;;;;;;;5.88;3.05;;;21.40;58.50;;;;;;5049242;28;20064;-80
2023/07/14 12:20:25;;;;;;;7.55;2.83;;;21.30;59.10;;;;;;5024821;28;20054;-80
2023/07/14 12:23:21;;;;;;;6.17;3.20;;;21.40;59.00;;;;;;5029670;28;20077;-78
2023/07/14 12:25:52;;;;;;;6.47;2.90;;;21.40;59.10;;;;;;5029970;28;20296;-75
2023/07/14 12:28:26;;;;;;;6.63;2.60;;;21.30;59.50;;;;;;5030444;28;20476;-78
2023/07/14 12:30:54;;;;;;;6.55;3.22;;;21.30;59.60;;;;;;5015515;28;20054;-79
2023/07/14 12:33:24;;;;;;;8.98;3.65;;;21.40;59.80;;;;;;5014619;28;20046;-79
2023/07/14 12:35:51;;;;;;;7.53;3.10;;;21.40;59.20;;;;;;5022965;28;20056;-78
2023/07/14 12:38:22;;;;;;;7.53;3.67;;;21.50;59.40;;;;;;5006082;28;20281;-77
2023/07/14 12:40:52;;;;;;;7.22;4.07;;;21.50;59.00;;;;;;5013195;28;20054;-78
2023/07/14 12:43:27;;;;;;;7.22;4.18;;;21.50;58.60;;;;;;5030674;28;20495;-75
2023/07/14 12:45:55;;;;;;;5.97;3.47;;;21.50;58.20;;;;;;5033756;28;20054;-76
2023/07/14 12:48:27;;;;;;;8.30;3.90;;;21.60;57.90;;;;;;5028704;28;20132;-76
2023/07/14 12:50:54;;;;;;;8.90;4.38;;;21.60;57.80;;;;;;5025803;28;20266;-76
2023/07/14 12:53:22;;;;;;;7.80;4.35;;;21.50;58.10;;;;;;5020365;28;20045;-75
2023/07/14 12:55:49;;;;;;;8.25;4.05;;;21.50;58.30;;;;;;5022472;28;20055;-75
2023/07/14 12:58:21;;;;;;;7.43;3.92;;;21.50;58.70;;;;;;5024877;28;20100;-76
2023/07/14 13:00:54;;;;;;;7.70;4.00;;;21.50;59.20;;;;;;5025628;28;20514;-76